createdAt,value
2024-03-02T00:01:24.033Z,13.96
2024-03-02T00:05:09.280Z,13.96
2024-03-02T00:08:46.443Z,13.95
2024-03-02T00:12:13.894Z,13.94
2024-03-02T00:16:01.090Z,13.89
2024-03-02T00:19:07.241Z,14.04
2024-03-02T00:22:51.829Z,14.16
2024-03-02T00:26:36.952Z,14.04
2024-03-02T00:30:10.919Z,14.08
2024-03-02T00:33:52.945Z,13.97
2024-03-02T00:37:11.435Z,13.93
2024-03-02T00:40:52.192Z,13.93
2024-03-02T00:44:30.942Z,13.90
2024-03-02T00:48:21.481Z,14.02
2024-03-02T00:52:10.968Z,14.02
2024-03-02T00:55:50.836Z,14.01
2024-03-02T00:59:33.030Z,13.90
2024-03-02T01:03:14.703Z,13.83
2024-03-02T01:06:57.238Z,13.89
2024-03-02T01:10:17.738Z,14.09
2024-03-02T01:13:56.539Z,13.99
2024-03-02T01:17:37.535Z,13.85
2024-03-02T01:21:27.068Z,13.82
2024-03-02T01:24:45.921Z,13.94
2024-03-02T01:28:21.210Z,13.88
2024-03-02T01:31:48.392Z,13.84
2024-03-02T01:34:48.807Z,13.85
2024-03-02T01:38:17.008Z,13.78
2024-03-02T01:41:34.078Z,13.84
2024-03-02T01:44:51.824Z,13.75
2024-03-02T01:48:04.222Z,13.79
2024-03-02T01:51:35.799Z,13.82
2024-03-02T01:55:18.630Z,14.01
2024-03-02T01:58:49.455Z,13.91
2024-03-02T02:02:17.115Z,13.94
2024-03-02T02:05:49.144Z,13.85
2024-03-02T02:09:06.976Z,13.87
2024-03-02T02:12:35.148Z,13.84
2024-03-02T02:16:17.292Z,13.91
2024-03-02T02:19:43.780Z,13.97
2024-03-02T02:23:13.600Z,13.87
2024-03-02T02:26:28.402Z,13.81
2024-03-02T02:30:08.941Z,13.75
2024-03-02T02:33:36.253Z,13.75
2024-03-02T02:37:11.191Z,13.68
2024-03-02T02:40:39.561Z,13.61
2024-03-02T02:44:12.746Z,13.57
2024-03-02T02:47:51.978Z,13.58
2024-03-02T02:51:19.991Z,13.62
2024-03-02T02:54:38.021Z,13.60
2024-03-02T02:58:01.523Z,13.32
2024-03-02T03:01:41.396Z,13.35
2024-03-02T03:05:02.727Z,13.18
2024-03-02T03:08:28.523Z,13.42
2024-03-02T03:11:53.793Z,13.42
2024-03-02T03:15:13.291Z,13.48
2024-03-02T03:18:38.122Z,13.65
2024-03-02T03:22:11.420Z,13.46
2024-03-02T03:25:28.792Z,13.41
2024-03-02T03:28:48.189Z,13.39
2024-03-02T03:32:27.477Z,13.24
2024-03-02T03:36:02.350Z,13.23
2024-03-02T03:39:15.531Z,13.30
2024-03-02T03:42:42.261Z,13.39
2024-03-02T03:46:16.097Z,13.31
2024-03-02T03:50:06.032Z,13.41
2024-03-02T03:53:26.979Z,13.38
2024-03-02T03:57:16.350Z,13.47
2024-03-02T04:00:28.668Z,13.53
2024-03-02T04:04:03.284Z,13.64
2024-03-02T04:07:45.197Z,13.61
2024-03-02T04:11:25.476Z,13.52
2024-03-02T04:14:47.766Z,13.51
2024-03-02T04:18:08.295Z,13.60
2024-03-02T04:21:43.250Z,13.51
2024-03-02T04:25:25.118Z,13.26
2024-03-02T04:29:06.489Z,13.27
2024-03-02T04:32:32.718Z,13.17
2024-03-02T04:35:38.965Z,13.26
2024-03-02T04:39:03.554Z,13.32
2024-03-02T04:42:25.997Z,13.20
2024-03-02T04:46:00.420Z,13.24
2024-03-02T04:49:30.066Z,13.26
2024-03-02T04:52:56.388Z,13.23
2024-03-02T04:56:20.155Z,13.26
2024-03-02T04:59:43.056Z,13.19
2024-03-02T05:03:03.661Z,13.21
2024-03-02T05:05:45.786Z,13.38
2024-03-02T05:09:10.914Z,13.42
2024-03-02T05:12:11.298Z,13.50
2024-03-02T05:14:43.665Z,13.43
2024-03-02T05:18:00.862Z,13.46
2024-03-02T05:20:45.116Z,13.46
2024-03-02T05:23:53.888Z,13.37
2024-03-02T05:27:02.807Z,13.51
2024-03-02T05:30:47.464Z,13.51
2024-03-02T05:34:18.043Z,13.52
2024-03-02T05:37:50.831Z,13.44
2024-03-02T05:41:19.536Z,13.45
2024-03-02T05:44:17.509Z,13.51
2024-03-02T05:47:40.809Z,13.58
2024-03-02T05:51:02.358Z,13.56
2024-03-02T05:54:25.765Z,13.59
2024-03-02T05:58:02.909Z,13.55
2024-03-02T06:01:31.027Z,13.47
2024-03-02T06:04:48.774Z,13.53
2024-03-02T06:07:59.525Z,13.43
2024-03-02T06:11:00.615Z,13.50
2024-03-02T06:14:09.166Z,13.46
2024-03-02T06:17:51.383Z,13.50
2024-03-02T06:21:40.843Z,13.44
2024-03-02T06:25:22.389Z,13.35
2024-03-02T06:28:49.879Z,13.40
2024-03-02T06:32:28.168Z,13.34
2024-03-02T06:36:03.136Z,13.28
2024-03-02T06:39:35.293Z,13.38
2024-03-02T06:43:08.870Z,13.39
2024-03-02T06:46:28.073Z,13.51
2024-03-02T06:49:55.027Z,13.53
2024-03-02T06:53:24.053Z,13.51
2024-03-02T06:56:40.316Z,13.65
2024-03-02T07:00:28.683Z,13.75
2024-03-02T07:03:54.688Z,13.70
2024-03-02T07:11:28.473Z,13.53
2024-03-02T07:14:17.061Z,13.15
2024-03-02T07:17:24.953Z,13.28
2024-03-02T07:20:53.451Z,13.23
2024-03-02T07:24:19.816Z,13.30
2024-03-02T07:27:50.075Z,13.33
2024-03-02T07:31:32.455Z,13.43
2024-03-02T07:34:44.355Z,13.43
2024-03-02T07:38:15.988Z,13.54
2024-03-02T07:41:45.889Z,13.80
2024-03-02T07:44:46.266Z,13.93
2024-03-02T07:48:08.533Z,13.97
2024-03-02T07:51:58.123Z,14.02
2024-03-02T07:54:56.992Z,13.96
2024-03-02T07:57:34.044Z,13.96
2024-03-02T08:00:23.082Z,14.07
2024-03-02T08:03:44.227Z,14.17
2024-03-02T08:06:34.902Z,14.10
2024-03-02T08:09:42.080Z,14.11
2024-03-02T08:13:01.078Z,14.19
2024-03-02T08:15:53.872Z,14.22
2024-03-02T08:18:42.453Z,14.36
2024-03-02T08:21:35.850Z,14.47
2024-03-02T08:24:44.893Z,14.64
2024-03-02T08:28:02.547Z,14.73
2024-03-02T08:31:49.683Z,14.76
2024-03-02T08:34:21.102Z,14.85
2024-03-02T08:37:51.995Z,15.03
2024-03-02T08:41:20.320Z,14.97
2024-03-02T08:44:58.233Z,14.98
2024-03-02T08:48:26.388Z,15.02
2024-03-02T08:52:15.039Z,15.11
2024-03-02T08:55:18.499Z,15.25
2024-03-02T08:58:11.323Z,15.34
2024-03-02T09:00:53.514Z,15.72
2024-03-02T09:04:35.305Z,15.81
2024-03-02T09:07:25.112Z,15.74
2024-03-02T09:10:40.197Z,15.80
2024-03-02T09:13:34.609Z,15.95
2024-03-02T09:16:54.329Z,16.06
2024-03-02T09:19:53.495Z,16.25
2024-03-02T09:22:27.100Z,16.35
2024-03-02T09:25:05.749Z,16.61
2024-03-02T09:28:00.892Z,16.66
2024-03-02T09:31:21.716Z,16.61
2024-03-02T09:34:44.721Z,16.74
2024-03-02T09:37:54.022Z,16.90
2024-03-02T09:40:47.874Z,17.16
2024-03-02T09:44:01.695Z,17.30
2024-03-02T09:46:40.605Z,17.60
2024-03-02T09:49:24.733Z,17.78
2024-03-02T09:52:54.685Z,17.94
2024-03-02T09:56:26.949Z,18.20
2024-03-02T09:59:26.123Z,18.58
2024-03-02T10:02:26.769Z,18.73
2024-03-02T10:05:30.217Z,18.69
2024-03-02T10:09:16.179Z,18.81
2024-03-02T10:11:55.422Z,18.92
2024-03-02T10:15:15.953Z,19.06
2024-03-02T10:17:53.177Z,19.00
2024-03-02T10:20:25.949Z,19.10
2024-03-02T10:23:37.015Z,19.25
2024-03-02T10:26:30.266Z,19.51
2024-03-02T10:29:11.513Z,19.56
2024-03-02T10:31:48.385Z,19.72
2024-03-02T10:34:22.886Z,19.71
2024-03-02T10:37:06.510Z,19.97
2024-03-02T10:39:44.061Z,20.19
2024-03-02T10:42:44.370Z,20.11
2024-03-02T10:45:53.599Z,20.32
2024-03-02T10:54:49.726Z,20.13
2024-03-02T10:59:10.810Z,19.96
2024-03-02T11:03:26.782Z,20.17
2024-03-02T11:07:51.241Z,20.35
2024-03-02T11:12:20.058Z,20.50
2024-03-02T11:16:49.543Z,20.64
2024-03-02T11:20:59.232Z,20.61
2024-03-02T11:25:29.514Z,20.57
2024-03-02T11:30:18.593Z,20.27
2024-03-02T11:34:44.461Z,20.30
2024-03-02T11:39:00.515Z,20.26
2024-03-02T11:43:22.162Z,20.28
2024-03-02T11:48:04.063Z,20.18
2024-03-02T11:52:34.203Z,20.22
2024-03-02T11:57:05.353Z,20.10
2024-03-02T12:01:37.381Z,20.12
2024-03-02T12:05:57.724Z,20.36
2024-03-02T12:10:12.083Z,20.47
2024-03-02T12:14:41.800Z,20.40
2024-03-02T12:19:15.060Z,20.24
2024-03-02T12:23:26.954Z,20.27
2024-03-02T12:27:54.712Z,20.05
2024-03-02T12:32:25.460Z,20.10
2024-03-02T12:36:58.072Z,20.07
2024-03-02T12:41:11.168Z,20.12
2024-03-02T12:45:17.860Z,19.77
2024-03-02T12:49:48.424Z,19.59
2024-03-02T12:54:18.622Z,19.66
2024-03-02T12:58:49.784Z,19.43
2024-03-02T13:03:19.473Z,19.41
2024-03-02T13:07:49.176Z,19.48
2024-03-02T13:12:21.272Z,19.42
2024-03-02T13:16:44.422Z,19.63
2024-03-02T13:21:06.165Z,19.61
2024-03-02T13:25:40.800Z,19.81
2024-03-02T13:30:14.896Z,19.89
2024-03-02T13:39:19.750Z,20.32
2024-03-02T13:43:51.070Z,20.40
2024-03-02T13:48:30.332Z,20.38
2024-03-02T13:52:55.166Z,20.36
2024-03-02T13:56:44.780Z,20.38
2024-03-02T13:59:24.903Z,20.30
2024-03-02T14:01:56.932Z,20.48
2024-03-02T14:04:50.885Z,20.60
2024-03-02T14:07:24.697Z,20.74
2024-03-02T14:10:24.678Z,20.68
2024-03-02T14:13:09.759Z,20.64
2024-03-02T14:15:42.259Z,20.62
2024-03-02T14:18:14.072Z,20.64
2024-03-02T14:20:45.658Z,20.49
2024-03-02T14:23:18.838Z,20.28
2024-03-02T14:25:47.480Z,20.25
2024-03-02T14:28:43.000Z,20.19
2024-03-02T14:31:08.017Z,20.26
2024-03-02T14:33:47.537Z,20.02
2024-03-02T14:36:19.621Z,19.90
2024-03-02T14:39:01.267Z,19.76
2024-03-02T14:41:42.482Z,19.70
2024-03-02T14:44:35.482Z,19.71
2024-03-02T14:47:12.138Z,19.57
2024-03-02T14:49:45.133Z,19.51
2024-03-02T14:52:25.181Z,19.30
2024-03-02T14:54:58.336Z,19.42
2024-03-02T14:57:42.308Z,19.38
2024-03-02T15:00:21.842Z,19.34
2024-03-02T15:03:19.977Z,19.31
2024-03-02T15:05:55.066Z,19.19
2024-03-02T15:08:53.855Z,19.22
2024-03-02T15:12:13.748Z,19.30
2024-03-02T15:14:51.532Z,19.10
2024-03-02T15:17:53.315Z,19.06
2024-03-02T15:20:38.850Z,19.15
2024-03-02T15:23:33.070Z,19.05
2024-03-02T15:26:29.895Z,19.03
2024-03-02T15:29:30.094Z,19.04
2024-03-02T15:32:45.935Z,19.01
2024-03-02T15:35:40.324Z,18.86
2024-03-02T15:39:08.877Z,18.79
2024-03-02T15:42:43.790Z,18.62
2024-03-02T15:46:06.899Z,18.58
2024-03-02T15:49:41.548Z,18.54
2024-03-02T15:52:37.112Z,18.49
2024-03-02T15:55:18.302Z,18.47
2024-03-02T15:58:52.842Z,18.34
2024-03-02T16:02:30.960Z,18.12
2024-03-02T16:05:21.702Z,18.09
2024-03-02T16:08:36.269Z,18.16
2024-03-02T16:11:24.037Z,18.15
2024-03-02T16:14:17.581Z,18.14
2024-03-02T16:18:04.860Z,18.15
2024-03-02T16:21:18.056Z,18.14
2024-03-02T16:24:21.838Z,18.15
2024-03-02T16:27:16.443Z,17.86
2024-03-02T16:30:21.260Z,17.78
2024-03-02T16:33:25.288Z,17.60
2024-03-02T16:36:28.350Z,17.46
2024-03-02T16:39:05.275Z,17.32
2024-03-02T16:42:17.944Z,17.23
2024-03-02T16:45:30.028Z,17.10
2024-03-02T16:48:17.095Z,17.01
2024-03-02T16:51:56.719Z,17.06
2024-03-02T16:55:08.851Z,16.89
2024-03-02T16:58:06.937Z,16.89
2024-03-02T17:01:08.866Z,16.91
2024-03-02T17:04:41.366Z,16.86
2024-03-02T17:08:02.639Z,16.83
2024-03-02T17:11:11.325Z,16.82
2024-03-02T17:14:48.309Z,16.85
2024-03-02T17:18:28.278Z,16.82
2024-03-02T17:22:01.917Z,16.82
2024-03-02T17:25:34.144Z,16.82
2024-03-02T17:28:51.000Z,16.73
2024-03-02T17:32:39.942Z,16.66
2024-03-02T17:36:00.302Z,16.62
2024-03-02T17:39:18.608Z,16.53
2024-03-02T17:43:01.046Z,16.53
2024-03-02T17:46:08.478Z,16.47
2024-03-02T17:48:56.092Z,16.39
2024-03-02T17:51:54.953Z,16.47
2024-03-02T17:54:49.384Z,16.63
2024-03-02T17:57:51.647Z,16.62
2024-03-02T18:00:42.732Z,16.60
2024-03-02T18:03:17.430Z,16.59
2024-03-02T18:05:52.680Z,16.58
2024-03-02T18:08:23.406Z,16.64
2024-03-02T18:11:09.003Z,16.70
2024-03-02T18:14:30.000Z,16.76
2024-03-02T18:18:08.669Z,16.76
2024-03-02T18:21:50.342Z,16.79
2024-03-02T18:25:40.949Z,16.61
2024-03-02T18:29:23.718Z,16.55
2024-03-02T18:32:40.719Z,16.44
2024-03-02T18:36:01.218Z,16.41
2024-03-02T18:39:29.180Z,16.44
2024-03-02T18:43:10.022Z,16.33
2024-03-02T18:46:50.218Z,16.31
2024-03-02T18:50:09.556Z,16.21
2024-03-02T18:53:39.077Z,16.18
2024-03-02T18:57:20.276Z,16.06
2024-03-02T19:00:38.724Z,16.00
2024-03-02T19:03:21.554Z,15.97
2024-03-02T19:06:39.453Z,15.98
2024-03-02T19:10:15.067Z,15.94
2024-03-02T19:13:47.650Z,15.94
2024-03-02T19:16:38.708Z,15.93
2024-03-02T19:19:25.090Z,15.91
2024-03-02T19:22:19.825Z,15.93
2024-03-02T19:25:16.067Z,15.84
2024-03-02T19:28:19.506Z,15.78
2024-03-02T19:31:28.143Z,15.82
2024-03-02T19:35:16.409Z,15.67
2024-03-02T19:38:14.182Z,15.54
2024-03-02T19:41:24.082Z,15.58
2024-03-02T19:44:42.164Z,15.68
2024-03-02T19:47:37.564Z,15.65
2024-03-02T19:50:56.419Z,15.70
2024-03-02T19:53:54.065Z,15.69
2024-03-02T19:57:34.331Z,15.65
2024-03-02T20:00:29.129Z,15.66
2024-03-02T20:04:01.320Z,15.53
2024-03-02T20:06:40.184Z,15.53
2024-03-02T20:09:42.378Z,15.50
2024-03-02T20:13:10.791Z,15.41
2024-03-02T20:16:05.964Z,15.42
2024-03-02T20:19:27.069Z,15.37
2024-03-02T20:22:46.212Z,15.36
2024-03-02T20:26:12.932Z,15.37
2024-03-02T20:29:52.654Z,15.32
2024-03-02T20:32:54.938Z,15.48
2024-03-02T20:36:04.328Z,15.47
2024-03-02T20:39:19.014Z,15.31
2024-03-02T20:43:02.124Z,15.30
2024-03-02T20:46:10.054Z,15.14
2024-03-02T20:49:50.874Z,14.94
2024-03-02T20:53:32.100Z,14.58
2024-03-02T20:57:22.971Z,14.70
2024-03-02T21:00:49.694Z,14.67
2024-03-02T21:04:31.988Z,14.67
2024-03-02T21:07:26.034Z,14.70
2024-03-02T21:10:53.385Z,14.54
2024-03-02T21:14:40.664Z,14.34
2024-03-02T21:17:28.347Z,14.31
2024-03-02T21:20:55.654Z,14.35
2024-03-02T21:24:31.251Z,14.35
2024-03-02T21:28:15.831Z,14.25
2024-03-02T21:31:56.413Z,14.33
2024-03-02T21:35:20.275Z,14.33
2024-03-02T21:38:31.109Z,14.27
2024-03-02T21:42:03.099Z,14.22
2024-03-02T21:45:35.766Z,14.17
2024-03-02T21:49:26.391Z,14.31
2024-03-02T21:52:54.861Z,14.13
2024-03-02T21:56:03.523Z,14.03
2024-03-02T21:59:49.506Z,14.19
2024-03-02T22:04:43.393Z,14.06
2024-03-02T22:07:49.525Z,14.00
2024-03-02T22:11:24.836Z,14.03
2024-03-02T22:15:19.867Z,14.03
2024-03-02T22:19:10.845Z,14.10
2024-03-02T22:22:55.231Z,14.04
2024-03-02T22:26:46.042Z,14.10
2024-03-02T22:30:28.384Z,14.15
2024-03-02T22:34:05.584Z,13.79
2024-03-02T22:38:45.237Z,13.83
2024-03-02T22:42:26.821Z,13.89
2024-03-02T22:46:16.758Z,13.93
2024-03-02T22:50:06.492Z,14.14
2024-03-02T22:53:39.257Z,14.15
2024-03-02T22:57:29.666Z,13.77
2024-03-02T23:01:10.149Z,14.14
2024-03-02T23:04:34.873Z,14.05
2024-03-02T23:08:09.176Z,14.03
2024-03-02T23:11:56.412Z,14.00
2024-03-02T23:15:39.535Z,13.84
2024-03-02T23:19:29.453Z,13.87
2024-03-02T23:22:44.610Z,13.95
2024-03-02T23:26:19.148Z,13.88
2024-03-02T23:30:08.624Z,13.79
2024-03-02T23:33:50.565Z,13.78
2024-03-02T23:37:30.154Z,13.68
2024-03-02T23:41:04.180Z,13.77
2024-03-02T23:44:39.792Z,13.87
2024-03-02T23:47:52.659Z,13.70
2024-03-02T23:51:45.856Z,13.55
2024-03-02T23:55:00.836Z,13.57
2024-03-02T23:58:11.542Z,13.72
